sensor_id;sensor_type;location;lat;lon;timestamp;pressure;altitude;pressure_sealevel;temperature;humidity
13434;BME280;6789;47.678;9.158;2023-01-26T00:04:41;97213.63;;;1.36;100.00
13434;BME280;6789;47.678;9.158;2023-01-26T00:09:33;97222.84;;;1.39;99.40
13434;BME280;6789;47.678;9.158;2023-01-26T00:14:25;97215.59;;;1.50;99.24
13434;BME280;6789;47.678;9.158;2023-01-26T00:19:16;97200.41;;;1.47;98.99
13434;BME280;6789;47.678;9.158;2023-01-26T00:24:08;97201.25;;;1.55;98.90
13434;BME280;6789;47.678;9.158;2023-01-26T00:29:00;97197.38;;;1.51;99.01
13434;BME280;6789;47.678;9.158;2023-01-26T00:33:55;97204.81;;;1.62;98.57
13434;BME280;6789;47.678;9.158;2023-01-26T00:38:47;97204.97;;;1.53;98.76
13434;BME280;6789;47.678;9.158;2023-01-26T00:43:39;97201.22;;;1.47;99.34
13434;BME280;6789;47.678;9.158;2023-01-26T00:48:31;97207.00;;;1.41;99.93
13434;BME280;6789;47.678;9.158;2023-01-26T00:53:22;97201.84;;;1.41;99.63
13434;BME280;6789;47.678;9.158;2023-01-26T00:58:14;97192.34;;;1.42;99.06
13434;BME280;6789;47.678;9.158;2023-01-26T01:03:06;97192.47;;;1.40;99.55
13434;BME280;6789;47.678;9.158;2023-01-26T01:07:58;97192.00;;;1.45;98.50
13434;BME280;6789;47.678;9.158;2023-01-26T01:12:50;97191.34;;;1.35;98.79
13434;BME280;6789;47.678;9.158;2023-01-26T01:17:42;97197.47;;;1.34;98.98
13434;BME280;6789;47.678;9.158;2023-01-26T01:22:34;97199.44;;;1.40;99.09
13434;BME280;6789;47.678;9.158;2023-01-26T01:27:26;97201.38;;;1.46;98.54
13434;BME280;6789;47.678;9.158;2023-01-26T01:32:19;97186.69;;;1.39;97.90
13434;BME280;6789;47.678;9.158;2023-01-26T01:37:11;97185.09;;;1.53;97.05
13434;BME280;6789;47.678;9.158;2023-01-26T01:42:02;97173.25;;;1.35;98.39
13434;BME280;6789;47.678;9.158;2023-01-26T01:47:01;97173.88;;;1.29;98.70
13434;BME280;6789;47.678;9.158;2023-01-26T01:52:19;97173.88;;;1.29;98.71
13434;BME280;6789;47.678;9.158;2023-01-26T01:57:24;97175.97;;;1.26;98.96
13434;BME280;6789;47.678;9.158;2023-01-26T02:02:19;97175.31;;;1.24;98.64
13434;BME280;6789;47.678;9.158;2023-01-26T02:07:11;97163.69;;;1.20;98.10
13434;BME280;6789;47.678;9.158;2023-01-26T02:12:07;97171.09;;;1.23;98.00
13434;BME280;6789;47.678;9.158;2023-01-26T02:17:01;97171.72;;;1.17;99.17
13434;BME280;6789;47.678;9.158;2023-01-26T02:21:59;97157.69;;;1.19;98.32
13434;BME280;6789;47.678;9.158;2023-01-26T02:26:55;97157.06;;;1.17;98.18
13434;BME280;6789;47.678;9.158;2023-01-26T02:31:47;97147.06;;;1.22;97.96
13434;BME280;6789;47.678;9.158;2023-01-26T02:36:39;97140.81;;;1.33;98.49
13434;BME280;6789;47.678;9.158;2023-01-26T02:41:31;97140.97;;;1.39;97.13
13434;BME280;6789;47.678;9.158;2023-01-26T02:46:41;97134.72;;;1.57;96.09
13434;BME280;6789;47.678;9.158;2023-01-26T02:51:33;97136.66;;;1.55;96.41
13434;BME280;6789;47.678;9.158;2023-01-26T02:56:25;97126.47;;;1.62;95.82
13434;BME280;6789;47.678;9.158;2023-01-26T03:01:16;97117.28;;;1.59;97.09
13434;BME280;6789;47.678;9.158;2023-01-26T03:06:10;97116.97;;;1.62;97.03
13434;BME280;6789;47.678;9.158;2023-01-26T03:11:04;97114.50;;;1.45;96.08
13434;BME280;6789;47.678;9.158;2023-01-26T03:15:56;97107.38;;;1.31;97.29
13434;BME280;6789;47.678;9.158;2023-01-26T03:21:03;97099.47;;;1.25;97.27
13434;BME280;6789;47.678;9.158;2023-01-26T03:26:13;97093.00;;;1.29;97.06
13434;BME280;6789;47.678;9.158;2023-01-26T03:31:24;97091.72;;;1.25;97.38
13434;BME280;6789;47.678;9.158;2023-01-26T03:36:15;97094.28;;;1.25;97.82
13434;BME280;6789;47.678;9.158;2023-01-26T03:41:07;97086.22;;;1.28;96.46
13434;BME280;6789;47.678;9.158;2023-01-26T03:46:17;97074.94;;;1.21;96.55
13434;BME280;6789;47.678;9.158;2023-01-26T03:51:27;97068.00;;;1.29;96.55
13434;BME280;6789;47.678;9.158;2023-01-26T03:56:38;97071.00;;;1.09;97.17
13434;BME280;6789;47.678;9.158;2023-01-26T04:01:29;97067.66;;;1.16;97.40
13434;BME280;6789;47.678;9.158;2023-01-26T04:06:23;97077.16;;;1.08;97.57
13434;BME280;6789;47.678;9.158;2023-01-26T04:11:33;97073.94;;;1.14;96.35
13434;BME280;6789;47.678;9.158;2023-01-26T04:16:25;97072.00;;;1.16;96.91
13434;BME280;6789;47.678;9.158;2023-01-26T04:21:36;97061.16;;;1.12;97.27
13434;BME280;6789;47.678;9.158;2023-01-26T04:26:30;97067.19;;;1.29;96.35
13434;BME280;6789;47.678;9.158;2023-01-26T04:31:27;97056.06;;;1.44;96.13
13434;BME280;6789;47.678;9.158;2023-01-26T04:36:19;97048.31;;;1.44;94.75
13434;BME280;6789;47.678;9.158;2023-01-26T04:41:10;97045.72;;;1.28;95.67
13434;BME280;6789;47.678;9.158;2023-01-26T04:46:06;97045.22;;;1.17;95.49
13434;BME280;6789;47.678;9.158;2023-01-26T04:51:16;97040.06;;;1.25;96.16
13434;BME280;6789;47.678;9.158;2023-01-26T04:56:29;97037.47;;;1.17;95.83
13434;BME280;6789;47.678;9.158;2023-01-26T05:01:21;97027.13;;;1.17;96.67
13434;BME280;6789;47.678;9.158;2023-01-26T05:06:28;97030.22;;;1.20;94.95
13434;BME280;6789;47.678;9.158;2023-01-26T05:11:35;97025.03;;;1.12;95.38
13434;BME280;6789;47.678;9.158;2023-01-26T05:16:41;97020.69;;;1.13;95.81
13434;BME280;6789;47.678;9.158;2023-01-26T05:21:47;97027.00;;;1.26;95.98
13434;BME280;6789;47.678;9.158;2023-01-26T05:26:52;97024.91;;;1.30;94.35
13434;BME280;6789;47.678;9.158;2023-01-26T05:32:09;97022.63;;;1.19;94.16
13434;BME280;6789;47.678;9.158;2023-01-26T05:37:14;97025.84;;;1.13;95.45
13434;BME280;6789;47.678;9.158;2023-01-26T05:42:22;97024.88;;;1.06;95.98
13434;BME280;6789;47.678;9.158;2023-01-26T05:47:28;97024.69;;;0.99;96.85
13434;BME280;6789;47.678;9.158;2023-01-26T05:52:35;97036.81;;;1.07;95.74
13434;BME280;6789;47.678;9.158;2023-01-26T05:57:42;97035.78;;;0.92;96.59
13434;BME280;6789;47.678;9.158;2023-01-26T06:02:48;97045.31;;;0.99;95.92
13434;BME280;6789;47.678;9.158;2023-01-26T06:07:54;97040.81;;;1.01;96.59
13434;BME280;6789;47.678;9.158;2023-01-26T06:13:01;97052.75;;;0.94;96.89
13434;BME280;6789;47.678;9.158;2023-01-26T06:18:08;97046.16;;;1.00;96.86
13434;BME280;6789;47.678;9.158;2023-01-26T06:23:15;97052.44;;;0.97;96.65
13434;BME280;6789;47.678;9.158;2023-01-26T06:28:23;97053.56;;;0.95;96.30
13434;BME280;6789;47.678;9.158;2023-01-26T06:33:37;97055.19;;;0.96;97.09
13434;BME280;6789;47.678;9.158;2023-01-26T06:38:48;97050.13;;;0.78;97.20
13434;BME280;6789;47.678;9.158;2023-01-26T06:43:54;97053.19;;;0.82;97.96
13434;BME280;6789;47.678;9.158;2023-01-26T06:49:03;97048.06;;;0.98;96.46
13434;BME280;6789;47.678;9.158;2023-01-26T06:54:11;97042.13;;;0.97;96.56
13434;BME280;6789;47.678;9.158;2023-01-26T06:59:09;97042.91;;;0.98;96.05
13434;BME280;6789;47.678;9.158;2023-01-26T07:04:16;97045.50;;;0.90;96.28
13434;BME280;6789;47.678;9.158;2023-01-26T07:09:23;97044.31;;;0.76;97.76
13434;BME280;6789;47.678;9.158;2023-01-26T07:14:31;97044.34;;;0.84;97.16
13434;BME280;6789;47.678;9.158;2023-01-26T07:19:37;97043.66;;;0.82;96.89
13434;BME280;6789;47.678;9.158;2023-01-26T07:24:32;97052.50;;;0.72;97.03
13434;BME280;6789;47.678;9.158;2023-01-26T07:29:39;97045.75;;;0.71;96.83
13434;BME280;6789;47.678;9.158;2023-01-26T07:34:45;97048.47;;;0.69;97.31
13434;BME280;6789;47.678;9.158;2023-01-26T07:39:51;97045.13;;;0.77;96.63
13434;BME280;6789;47.678;9.158;2023-01-26T07:44:56;97047.72;;;0.77;96.21
13434;BME280;6789;47.678;9.158;2023-01-26T07:50:04;97050.28;;;0.77;96.92
13434;BME280;6789;47.678;9.158;2023-01-26T07:55:11;97042.81;;;0.66;96.64
13434;BME280;6789;47.678;9.158;2023-01-26T08:00:18;97038.47;;;0.67;96.43
13434;BME280;6789;47.678;9.158;2023-01-26T08:05:24;97043.13;;;0.63;97.19
13434;BME280;6789;47.678;9.158;2023-01-26T08:10:31;97038.50;;;0.82;96.87
13434;BME280;6789;47.678;9.158;2023-01-26T08:15:37;97041.88;;;0.75;96.55
13434;BME280;6789;47.678;9.158;2023-01-26T08:20:54;97036.94;;;0.97;95.47
13434;BME280;6789;47.678;9.158;2023-01-26T08:26:03;97040.00;;;0.93;96.12
13434;BME280;6789;47.678;9.158;2023-01-26T08:31:06;97041.09;;;0.82;94.42
13434;BME280;6789;47.678;9.158;2023-01-26T08:36:14;97033.06;;;1.01;93.76
13434;BME280;6789;47.678;9.158;2023-01-26T08:41:10;97033.22;;;0.92;93.79
13434;BME280;6789;47.678;9.158;2023-01-26T08:46:49;97022.44;;;1.12;94.23
13434;BME280;6789;47.678;9.158;2023-01-26T08:51:56;97030.34;;;1.03;93.35
13434;BME280;6789;47.678;9.158;2023-01-26T08:57:02;97034.72;;;1.18;91.92
13434;BME280;6789;47.678;9.158;2023-01-26T09:02:08;97027.47;;;1.14;92.21
13434;BME280;6789;47.678;9.158;2023-01-26T09:07:15;97037.13;;;1.04;92.43
13434;BME280;6789;47.678;9.158;2023-01-26T09:12:21;97024.22;;;1.12;93.31
13434;BME280;6789;47.678;9.158;2023-01-26T09:17:26;97035.63;;;0.93;93.63
13434;BME280;6789;47.678;9.158;2023-01-26T09:22:32;97022.91;;;1.00;93.62
13434;BME280;6789;47.678;9.158;2023-01-26T09:27:42;97037.13;;;1.12;93.03
13434;BME280;6789;47.678;9.158;2023-01-26T09:32:50;97031.34;;;1.18;92.02
13434;BME280;6789;47.678;9.158;2023-01-26T09:37:56;97023.06;;;1.06;92.65
13434;BME280;6789;47.678;9.158;2023-01-26T09:49:04;97030.69;;;1.24;92.09
13434;BME280;6789;47.678;9.158;2023-01-26T09:59:47;97028.13;;;1.39;90.00
13434;BME280;6789;47.678;9.158;2023-01-26T10:05:00;97025.72;;;1.38;90.79
13434;BME280;6789;47.678;9.158;2023-01-26T10:09:59;97027.19;;;1.33;90.06
13434;BME280;6789;47.678;9.158;2023-01-26T10:15:26;97022.66;;;1.27;90.26
13434;BME280;6789;47.678;9.158;2023-01-26T10:20:46;97022.47;;;1.28;90.22
13434;BME280;6789;47.678;9.158;2023-01-26T10:26:19;97014.25;;;1.25;89.83
13434;BME280;6789;47.678;9.158;2023-01-26T10:31:33;97013.28;;;1.26;90.41
13434;BME280;6789;47.678;9.158;2023-01-26T10:36:43;97007.81;;;1.44;89.39
13434;BME280;6789;47.678;9.158;2023-01-26T10:42:02;97001.84;;;1.36;89.86
13434;BME280;6789;47.678;9.158;2023-01-26T10:47:23;97004.88;;;1.39;89.32
13434;BME280;6789;47.678;9.158;2023-01-26T10:52:30;97009.56;;;1.44;87.83
13434;BME280;6789;47.678;9.158;2023-01-26T10:57:46;97007.31;;;1.57;87.23
13434;BME280;6789;47.678;9.158;2023-01-26T11:02:54;96999.38;;;1.66;87.07
13434;BME280;6789;47.678;9.158;2023-01-26T11:08:08;97007.13;;;1.66;86.57
13434;BME280;6789;47.678;9.158;2023-01-26T11:13:29;97013.09;;;1.75;86.17
13434;BME280;6789;47.678;9.158;2023-01-26T11:18:54;97017.63;;;1.81;85.20
13434;BME280;6789;47.678;9.158;2023-01-26T11:24:30;97002.75;;;1.91;84.81
13434;BME280;6789;47.678;9.158;2023-01-26T11:35:53;97005.47;;;2.05;83.89
13434;BME280;6789;47.678;9.158;2023-01-26T11:46:57;96995.72;;;2.23;81.55
13434;BME280;6789;47.678;9.158;2023-01-26T12:09:26;96980.94;;;1.93;82.55
13434;BME280;6789;47.678;9.158;2023-01-26T12:15:20;96970.13;;;1.98;81.15
13434;BME280;6789;47.678;9.158;2023-01-26T12:20:59;96964.47;;;1.94;82.10
13434;BME280;6789;47.678;9.158;2023-01-26T12:26:19;96962.47;;;2.20;80.85
13434;BME280;6789;47.678;9.158;2023-01-26T12:31:43;96953.22;;;2.17;81.23
13434;BME280;6789;47.678;9.158;2023-01-26T12:48:22;96947.13;;;2.11;83.08
13434;BME280;6789;47.678;9.158;2023-01-26T12:54:17;96947.31;;;2.01;83.94
13434;BME280;6789;47.678;9.158;2023-01-26T12:59:36;96936.81;;;2.03;83.73
13434;BME280;6789;47.678;9.158;2023-01-26T13:04:44;96932.91;;;1.99;84.66
13434;BME280;6789;47.678;9.158;2023-01-26T13:15:28;96930.94;;;2.16;84.13
13434;BME280;6789;47.678;9.158;2023-01-26T13:20:51;96935.69;;;1.89;83.56
13434;BME280;6789;47.678;9.158;2023-01-26T13:31:41;96919.56;;;1.87;83.75
13434;BME280;6789;47.678;9.158;2023-01-26T13:36:49;96927.69;;;1.60;84.58
13434;BME280;6789;47.678;9.158;2023-01-26T13:41:56;96931.91;;;1.53;84.78
13434;BME280;6789;47.678;9.158;2023-01-26T13:47:19;96927.69;;;1.52;84.38
13434;BME280;6789;47.678;9.158;2023-01-26T13:52:42;96930.09;;;1.78;83.27
13434;BME280;6789;47.678;9.158;2023-01-26T13:58:13;96926.03;;;1.83;83.97
13434;BME280;6789;47.678;9.158;2023-01-26T14:03:21;96929.94;;;1.71;83.05
13434;BME280;6789;47.678;9.158;2023-01-26T14:08:29;96928.03;;;1.57;84.99
13434;BME280;6789;47.678;9.158;2023-01-26T14:13:38;96929.81;;;1.49;85.08
13434;BME280;6789;47.678;9.158;2023-01-26T14:18:47;96929.34;;;1.38;85.79
13434;BME280;6789;47.678;9.158;2023-01-26T14:24:04;96926.75;;;1.22;85.81
13434;BME280;6789;47.678;9.158;2023-01-26T14:29:27;96929.97;;;1.39;86.22
13434;BME280;6789;47.678;9.158;2023-01-26T14:34:49;96924.50;;;1.35;85.57
13434;BME280;6789;47.678;9.158;2023-01-26T14:40:22;96931.28;;;1.28;86.17
13434;BME280;6789;47.678;9.158;2023-01-26T14:45:31;96926.13;;;1.43;86.26
13434;BME280;6789;47.678;9.158;2023-01-26T14:50:38;96940.81;;;1.35;85.86
13434;BME280;6789;47.678;9.158;2023-01-26T14:55:46;96940.19;;;1.17;87.01
13434;BME280;6789;47.678;9.158;2023-01-26T15:00:59;96949.06;;;1.15;86.32
13434;BME280;6789;47.678;9.158;2023-01-26T15:06:27;96944.84;;;1.30;85.27
13434;BME280;6789;47.678;9.158;2023-01-26T15:11:40;96941.59;;;1.28;85.39
13434;BME280;6789;47.678;9.158;2023-01-26T15:17:06;96938.72;;;1.23;86.29
13434;BME280;6789;47.678;9.158;2023-01-26T15:22:21;96950.63;;;1.16;86.54
13434;BME280;6789;47.678;9.158;2023-01-26T15:27:55;96949.53;;;1.34;86.09
13434;BME280;6789;47.678;9.158;2023-01-26T15:33:03;96958.06;;;1.35;85.16
13434;BME280;6789;47.678;9.158;2023-01-26T15:38:13;96957.91;;;1.44;85.12
13434;BME280;6789;47.678;9.158;2023-01-26T15:43:20;96952.91;;;1.50;84.75
13434;BME280;6789;47.678;9.158;2023-01-26T15:48:26;96949.84;;;1.39;85.28
13434;BME280;6789;47.678;9.158;2023-01-26T15:53:37;96955.19;;;1.45;84.73
13434;BME280;6789;47.678;9.158;2023-01-26T15:58:33;96959.19;;;1.32;85.57
13434;BME280;6789;47.678;9.158;2023-01-26T16:03:42;96952.09;;;1.50;84.97
13434;BME280;6789;47.678;9.158;2023-01-26T16:08:50;96954.84;;;1.48;84.27
13434;BME280;6789;47.678;9.158;2023-01-26T16:13:56;96955.19;;;1.38;84.92
13434;BME280;6789;47.678;9.158;2023-01-26T16:19:03;96958.38;;;1.47;84.68
13434;BME280;6789;47.678;9.158;2023-01-26T16:24:23;96963.41;;;1.41;83.60
13434;BME280;6789;47.678;9.158;2023-01-26T16:29:43;96958.72;;;1.37;84.94
13434;BME280;6789;47.678;9.158;2023-01-26T16:35:24;96964.53;;;1.39;84.76
13434;BME280;6789;47.678;9.158;2023-01-26T16:40:32;96961.31;;;1.44;84.72
13434;BME280;6789;47.678;9.158;2023-01-26T16:45:49;96964.06;;;1.35;85.05
13434;BME280;6789;47.678;9.158;2023-01-26T16:50:57;96960.66;;;1.35;85.16
13434;BME280;6789;47.678;9.158;2023-01-26T16:56:09;96967.28;;;1.45;84.76
13434;BME280;6789;47.678;9.158;2023-01-26T17:01:30;96965.50;;;1.30;85.29
13434;BME280;6789;47.678;9.158;2023-01-26T17:06:37;96964.53;;;1.46;84.65
13434;BME280;6789;47.678;9.158;2023-01-26T17:11:43;96961.13;;;1.46;85.33
13434;BME280;6789;47.678;9.158;2023-01-26T17:16:49;96964.84;;;1.36;84.88
13434;BME280;6789;47.678;9.158;2023-01-26T17:21:55;96952.44;;;1.47;83.79
13434;BME280;6789;47.678;9.158;2023-01-26T17:27:02;96956.94;;;1.53;83.71
13434;BME280;6789;47.678;9.158;2023-01-26T17:32:08;96964.03;;;1.43;83.58
13434;BME280;6789;47.678;9.158;2023-01-26T17:37:14;96958.41;;;1.24;84.75
13434;BME280;6789;47.678;9.158;2023-01-26T17:42:20;96965.03;;;1.42;84.17
13434;BME280;6789;47.678;9.158;2023-01-26T17:47:27;96965.50;;;1.30;83.89
13434;BME280;6789;47.678;9.158;2023-01-26T17:52:32;96958.91;;;1.35;83.65
13434;BME280;6789;47.678;9.158;2023-01-26T17:57:40;96961.94;;;1.31;83.03
13434;BME280;6789;47.678;9.158;2023-01-26T18:02:46;96965.34;;;1.23;84.50
13434;BME280;6789;47.678;9.158;2023-01-26T18:07:40;96968.91;;;1.22;84.64
13434;BME280;6789;47.678;9.158;2023-01-26T18:12:46;96971.31;;;1.24;84.59
13434;BME280;6789;47.678;9.158;2023-01-26T18:17:38;96958.88;;;1.27;84.25
13434;BME280;6789;47.678;9.158;2023-01-26T18:22:37;96970.84;;;1.36;83.76
13434;BME280;6789;47.678;9.158;2023-01-26T18:27:44;96966.47;;;1.21;84.17
13434;BME280;6789;47.678;9.158;2023-01-26T18:32:50;96972.59;;;1.20;84.99
13434;BME280;6789;47.678;9.158;2023-01-26T18:37:57;96967.28;;;1.21;85.01
13434;BME280;6789;47.678;9.158;2023-01-26T18:43:03;96972.75;;;1.18;86.04
13434;BME280;6789;47.678;9.158;2023-01-26T18:48:09;96962.78;;;1.23;85.33
13434;BME280;6789;47.678;9.158;2023-01-26T18:53:14;96962.91;;;1.22;84.99
13434;BME280;6789;47.678;9.158;2023-01-26T18:58:21;96963.09;;;1.28;85.18
13434;BME280;6789;47.678;9.158;2023-01-26T19:03:29;96960.34;;;1.38;84.65
13434;BME280;6789;47.678;9.158;2023-01-26T19:08:23;96951.94;;;1.43;84.27
13434;BME280;6789;47.678;9.158;2023-01-26T19:13:29;96962.94;;;1.14;85.09
13434;BME280;6789;47.678;9.158;2023-01-26T19:18:36;96964.84;;;0.96;86.39
13434;BME280;6789;47.678;9.158;2023-01-26T19:23:42;96949.34;;;1.04;85.46
13434;BME280;6789;47.678;9.158;2023-01-26T19:28:43;96944.53;;;1.01;84.71
13434;BME280;6789;47.678;9.158;2023-01-26T19:33:52;96942.91;;;1.08;85.11
13434;BME280;6789;47.678;9.158;2023-01-26T19:38:58;96937.44;;;1.19;84.71
13434;BME280;6789;47.678;9.158;2023-01-26T19:44:33;96939.03;;;1.20;85.54
13434;BME280;6789;47.678;9.158;2023-01-26T19:49:50;96945.16;;;1.35;84.68
13434;BME280;6789;47.678;9.158;2023-01-26T19:54:55;96941.78;;;1.42;84.51
13434;BME280;6789;47.678;9.158;2023-01-26T20:00:03;96943.22;;;1.44;83.48
13434;BME280;6789;47.678;9.158;2023-01-26T20:05:13;96953.09;;;1.41;83.81
13434;BME280;6789;47.678;9.158;2023-01-26T20:10:19;96939.34;;;1.25;83.81
13434;BME280;6789;47.678;9.158;2023-01-26T20:15:24;96940.16;;;1.33;84.32
13434;BME280;6789;47.678;9.158;2023-01-26T20:20:30;96941.47;;;1.21;85.79
13434;BME280;6789;47.678;9.158;2023-01-26T20:25:36;96933.88;;;1.04;86.84
13434;BME280;6789;47.678;9.158;2023-01-26T20:30:29;96941.28;;;0.99;87.62
13434;BME280;6789;47.678;9.158;2023-01-26T20:35:30;96940.81;;;1.11;86.89
13434;BME280;6789;47.678;9.158;2023-01-26T20:40:37;96940.63;;;0.97;88.27
13434;BME280;6789;47.678;9.158;2023-01-26T20:45:44;96941.63;;;0.96;87.91
13434;BME280;6789;47.678;9.158;2023-01-26T20:50:50;96937.59;;;1.09;87.49
13434;BME280;6789;47.678;9.158;2023-01-26T20:55:44;96943.88;;;1.15;87.40
13434;BME280;6789;47.678;9.158;2023-01-26T21:00:49;96939.81;;;1.12;87.51
13434;BME280;6789;47.678;9.158;2023-01-26T21:05:55;96935.50;;;1.21;87.16
13434;BME280;6789;47.678;9.158;2023-01-26T21:11:06;96930.66;;;1.18;86.85
13434;BME280;6789;47.678;9.158;2023-01-26T21:16:15;96931.28;;;1.04;87.67
13434;BME280;6789;47.678;9.158;2023-01-26T21:21:12;96932.25;;;1.19;87.25
13434;BME280;6789;47.678;9.158;2023-01-26T21:26:21;96936.13;;;1.07;88.70
13434;BME280;6789;47.678;9.158;2023-01-26T21:31:30;96935.81;;;1.18;87.85
13434;BME280;6789;47.678;9.158;2023-01-26T21:36:36;96929.84;;;1.17;88.79
13434;BME280;6789;47.678;9.158;2023-01-26T21:41:43;96934.34;;;0.91;88.97
13434;BME280;6789;47.678;9.158;2023-01-26T21:47:02;96931.59;;;0.77;89.89
13434;BME280;6789;47.678;9.158;2023-01-26T21:52:09;96927.88;;;0.87;90.31
13434;BME280;6789;47.678;9.158;2023-01-26T21:57:34;96926.75;;;0.98;89.23
13434;BME280;6789;47.678;9.158;2023-01-26T22:02:59;96919.34;;;1.03;89.99
13434;BME280;6789;47.678;9.158;2023-01-26T22:08:05;96915.97;;;1.10;89.48
13434;BME280;6789;47.678;9.158;2023-01-26T22:13:11;96912.22;;;0.97;89.46
13434;BME280;6789;47.678;9.158;2023-01-26T22:18:10;96926.91;;;1.12;88.30
13434;BME280;6789;47.678;9.158;2023-01-26T22:23:16;96913.53;;;1.01;89.89
13434;BME280;6789;47.678;9.158;2023-01-26T22:28:22;96913.53;;;1.01;90.52
13434;BME280;6789;47.678;9.158;2023-01-26T22:33:28;96911.44;;;1.12;88.84
13434;BME280;6789;47.678;9.158;2023-01-26T22:38:36;96913.88;;;1.14;87.99
13434;BME280;6789;47.678;9.158;2023-01-26T22:43:43;96912.56;;;1.10;88.39
13434;BME280;6789;47.678;9.158;2023-01-26T22:48:50;96906.59;;;1.01;89.80
13434;BME280;6789;47.678;9.158;2023-01-26T22:53:57;96910.63;;;1.04;90.94
13434;BME280;6789;47.678;9.158;2023-01-26T22:59:03;96907.41;;;0.94;91.21
13434;BME280;6789;47.678;9.158;2023-01-26T23:04:09;96905.31;;;0.89;92.69
13434;BME280;6789;47.678;9.158;2023-01-26T23:09:15;96901.59;;;1.00;92.09
13434;BME280;6789;47.678;9.158;2023-01-26T23:14:21;96893.22;;;0.98;91.61
13434;BME280;6789;47.678;9.158;2023-01-26T23:19:20;96893.22;;;0.82;93.10
13434;BME280;6789;47.678;9.158;2023-01-26T23:24:26;96893.69;;;0.77;94.34
13434;BME280;6789;47.678;9.158;2023-01-26T23:29:19;96885.94;;;0.77;93.41
13434;BME280;6789;47.678;9.158;2023-01-26T23:34:15;96883.38;;;0.77;93.93
13434;BME280;6789;47.678;9.158;2023-01-26T23:39:21;96896.91;;;0.71;93.98
13434;BME280;6789;47.678;9.158;2023-01-26T23:44:27;96887.38;;;0.72;93.96
13434;BME280;6789;47.678;9.158;2023-01-26T23:49:33;96889.97;;;0.72;92.30
13434;BME280;6789;47.678;9.158;2023-01-26T23:54:39;96891.41;;;0.74;92.83
13434;BME280;6789;47.678;9.158;2023-01-26T23:59:46;96888.50;;;0.69;92.59
